sensor_id;sensor_type;location;lat;lon;timestamp;pressure;altitude;pressure_sealevel;temperature;humidity
30856;BME280;17570;0.000;0.000;2023-02-25T00:00:31;96312.29;;;15.34;38.71
30856;BME280;17570;0.000;0.000;2023-02-25T00:02:59;96310.00;;;15.31;38.61
30856;BME280;17570;0.000;0.000;2023-02-25T00:05:27;96307.20;;;15.33;38.53
30856;BME280;17570;0.000;0.000;2023-02-25T00:07:55;96307.56;;;15.29;38.45
30856;BME280;17570;0.000;0.000;2023-02-25T00:10:23;96306.72;;;15.29;38.57
30856;BME280;17570;0.000;0.000;2023-02-25T00:12:50;96297.73;;;15.31;38.71
30856;BME280;17570;0.000;0.000;2023-02-25T00:15:23;96297.61;;;15.25;38.67
30856;BME280;17570;0.000;0.000;2023-02-25T00:17:50;96305.59;;;15.23;39.14
30856;BME280;17570;0.000;0.000;2023-02-25T00:20:17;96290.58;;;15.25;38.94
30856;BME280;17570;0.000;0.000;2023-02-25T00:22:51;96298.56;;;15.24;39.04
30856;BME280;17570;0.000;0.000;2023-02-25T00:25:18;96296.45;;;15.19;39.21
30856;BME280;17570;0.000;0.000;2023-02-25T00:27:49;96296.30;;;15.21;39.09
30856;BME280;17570;0.000;0.000;2023-02-25T00:30:19;96295.99;;;15.16;39.38
30856;BME280;17570;0.000;0.000;2023-02-25T00:32:48;96287.48;;;15.14;39.14
30856;BME280;17570;0.000;0.000;2023-02-25T00:35:18;96284.23;;;15.12;39.13
30856;BME280;17570;0.000;0.000;2023-02-25T00:37:47;96279.96;;;15.11;39.05
30856;BME280;17570;0.000;0.000;2023-02-25T00:40:16;96271.00;;;15.05;39.12
30856;BME280;17570;0.000;0.000;2023-02-25T00:42:44;96267.08;;;15.01;39.04
30856;BME280;17570;0.000;0.000;2023-02-25T00:45:13;96255.49;;;15.03;39.10
30856;BME280;17570;0.000;0.000;2023-02-25T00:47:40;96257.13;;;14.96;39.25
30856;BME280;17570;0.000;0.000;2023-02-25T00:50:08;96262.70;;;14.93;38.98
30856;BME280;17570;0.000;0.000;2023-02-25T00:52:36;96258.78;;;14.97;39.10
30856;BME280;17570;0.000;0.000;2023-02-25T00:55:04;96241.63;;;14.95;38.83
30856;BME280;17570;0.000;0.000;2023-02-25T00:57:32;96243.61;;;14.93;38.79
30856;BME280;17570;0.000;0.000;2023-02-25T00:59:59;96237.89;;;14.89;38.87
30856;BME280;17570;0.000;0.000;2023-02-25T01:02:27;96240.67;;;14.88;39.07
30856;BME280;17570;0.000;0.000;2023-02-25T01:04:55;96241.48;;;14.88;39.08
30856;BME280;17570;0.000;0.000;2023-02-25T01:07:22;96234.15;;;14.84;39.09
30856;BME280;17570;0.000;0.000;2023-02-25T01:09:49;96228.44;;;14.80;38.98
30856;BME280;17570;0.000;0.000;2023-02-25T01:12:18;96222.40;;;14.79;38.87
30856;BME280;17570;0.000;0.000;2023-02-25T01:14:46;96220.28;;;14.75;38.88
30856;BME280;17570;0.000;0.000;2023-02-25T01:17:14;96216.05;;;14.74;38.91
30856;BME280;17570;0.000;0.000;2023-02-25T01:19:43;96213.13;;;14.69;39.06
30856;BME280;17570;0.000;0.000;2023-02-25T01:22:12;96208.85;;;14.68;38.93
30856;BME280;17570;0.000;0.000;2023-02-25T01:24:40;96214.25;;;14.66;38.89
30856;BME280;17570;0.000;0.000;2023-02-25T01:27:07;96206.73;;;14.63;38.78
30856;BME280;17570;0.000;0.000;2023-02-25T01:29:36;96205.92;;;14.63;38.75
30856;BME280;17570;0.000;0.000;2023-02-25T01:32:06;96200.38;;;14.66;38.68
30856;BME280;17570;0.000;0.000;2023-02-25T01:34:33;96200.21;;;14.59;38.67
30856;BME280;17570;0.000;0.000;2023-02-25T01:37:02;96192.88;;;14.54;38.83
30856;BME280;17570;0.000;0.000;2023-02-25T01:39:30;96191.91;;;14.56;38.90
30856;BME280;17570;0.000;0.000;2023-02-25T01:42:00;96188.49;;;14.55;38.65
30856;BME280;17570;0.000;0.000;2023-02-25T01:44:30;96193.22;;;14.51;38.91
30856;BME280;17570;0.000;0.000;2023-02-25T01:46:58;96183.24;;;14.47;38.58
30856;BME280;17570;0.000;0.000;2023-02-25T01:49:44;96193.37;;;14.42;38.71
30856;BME280;17570;0.000;0.000;2023-02-25T01:52:14;96186.49;;;14.41;38.73
30856;BME280;17570;0.000;0.000;2023-02-25T01:54:41;96182.43;;;14.30;38.97
30856;BME280;17570;0.000;0.000;2023-02-25T01:57:10;96182.28;;;14.32;38.80
30856;BME280;17570;0.000;0.000;2023-02-25T01:59:39;96183.91;;;14.33;38.72
30856;BME280;17570;0.000;0.000;2023-02-25T02:02:08;96187.02;;;14.28;38.72
30856;BME280;17570;0.000;0.000;2023-02-25T02:04:36;96181.80;;;14.28;38.88
30856;BME280;17570;0.000;0.000;2023-02-25T02:07:04;96180.17;;;14.27;38.73
30856;BME280;17570;0.000;0.000;2023-02-25T02:09:33;96174.95;;;14.27;38.57
30856;BME280;17570;0.000;0.000;2023-02-25T02:12:01;96168.89;;;14.26;38.65
30856;BME280;17570;0.000;0.000;2023-02-25T02:14:31;96167.92;;;14.19;38.88
30856;BME280;17570;0.000;0.000;2023-02-25T02:17:04;96168.24;;;14.16;38.96
30856;BME280;17570;0.000;0.000;2023-02-25T02:22:17;96164.33;;;14.12;39.03
30856;BME280;17570;0.000;0.000;2023-02-25T02:27:29;96156.66;;;14.02;39.27
30856;BME280;17570;0.000;0.000;2023-02-25T02:32:41;96153.91;;;13.96;39.37
30856;BME280;17570;0.000;0.000;2023-02-25T02:38:04;96151.61;;;13.93;39.29
30856;BME280;17570;0.000;0.000;2023-02-25T02:40:31;96159.61;;;13.91;39.26
30856;BME280;17570;0.000;0.000;2023-02-25T02:48:04;96154.06;;;13.86;39.34
30856;BME280;17570;0.000;0.000;2023-02-25T02:50:36;96162.53;;;13.88;39.29
30856;BME280;17570;0.000;0.000;2023-02-25T02:53:08;96157.66;;;13.85;39.23
30856;BME280;17570;0.000;0.000;2023-02-25T02:55:40;96153.25;;;13.86;39.24
30856;BME280;17570;0.000;0.000;2023-02-25T02:58:10;96152.09;;;13.80;39.29
30856;BME280;17570;0.000;0.000;2023-02-25T03:00:37;96152.09;;;13.80;39.20
30856;BME280;17570;0.000;0.000;2023-02-25T03:03:11;96152.09;;;13.80;39.18
30856;BME280;17570;0.000;0.000;2023-02-25T03:05:34;96156.48;;;13.79;39.04
30856;BME280;17570;0.000;0.000;2023-02-25T03:08:07;96154.05;;;13.78;38.92
30856;BME280;17570;0.000;0.000;2023-02-25T03:10:33;96155.52;;;13.72;38.90
30856;BME280;17570;0.000;0.000;2023-02-25T03:13:01;96154.37;;;13.75;38.84
30856;BME280;17570;0.000;0.000;2023-02-25T03:15:29;96149.96;;;13.75;39.06
30856;BME280;17570;0.000;0.000;2023-02-25T03:18:01;96146.21;;;13.70;38.87
30856;BME280;17570;0.000;0.000;2023-02-25T03:20:27;96138.06;;;13.65;38.97
30856;BME280;17570;0.000;0.000;2023-02-25T03:22:57;96135.63;;;13.63;38.98
30856;BME280;17570;0.000;0.000;2023-02-25T03:25:26;96132.52;;;13.60;39.27
30856;BME280;17570;0.000;0.000;2023-02-25T03:27:55;96130.72;;;13.60;39.35
30856;BME280;17570;0.000;0.000;2023-02-25T03:30:30;96135.30;;;13.58;39.41
30856;BME280;17570;0.000;0.000;2023-02-25T03:35:43;96132.19;;;13.55;39.45
30856;BME280;17570;0.000;0.000;2023-02-25T03:38:13;96135.11;;;13.43;39.63
30856;BME280;17570;0.000;0.000;2023-02-25T03:40:40;96120.75;;;13.47;39.41
30856;BME280;17570;0.000;0.000;2023-02-25T03:43:10;96125.97;;;13.47;39.40
30856;BME280;17570;0.000;0.000;2023-02-25T03:45:38;96131.52;;;13.44;39.43
30856;BME280;17570;0.000;0.000;2023-02-25T08:47:10;95922.11;;;16.21;38.98
30856;BME280;17570;0.000;0.000;2023-02-25T08:49:38;95926.09;;;17.53;34.47
30856;BME280;17570;0.000;0.000;2023-02-25T08:52:07;95911.00;;;18.99;31.55
30856;BME280;17570;0.000;0.000;2023-02-25T08:54:37;95918.52;;;19.82;29.47
30856;BME280;17570;0.000;0.000;2023-02-25T08:57:04;95920.41;;;20.26;28.86
30856;BME280;17570;0.000;0.000;2023-02-25T08:59:32;95918.70;;;20.45;28.14
30856;BME280;17570;0.000;0.000;2023-02-25T09:02:01;95927.18;;;20.60;27.37
30856;BME280;17570;0.000;0.000;2023-02-25T09:04:29;95918.23;;;20.68;26.42
30856;BME280;17570;0.000;0.000;2023-02-25T09:06:56;95918.80;;;20.77;27.27
30856;BME280;17570;0.000;0.000;2023-02-25T09:09:24;95910.66;;;20.78;25.69
30856;BME280;17570;0.000;0.000;2023-02-25T09:11:52;95901.95;;;20.78;24.69
30856;BME280;17570;0.000;0.000;2023-02-25T09:14:20;95906.59;;;20.82;26.19
30856;BME280;17570;0.000;0.000;2023-02-25T09:16:48;95900.45;;;20.88;25.89
30856;BME280;17570;0.000;0.000;2023-02-25T09:19:15;95906.89;;;20.99;27.55
30856;BME280;17570;0.000;0.000;2023-02-25T09:21:44;95909.31;;;21.01;25.19
30856;BME280;17570;0.000;0.000;2023-02-25T09:24:14;95893.64;;;21.06;24.84
30856;BME280;17570;0.000;0.000;2023-02-25T09:26:42;95899.95;;;21.05;25.37
30856;BME280;17570;0.000;0.000;2023-02-25T09:29:09;95898.50;;;21.09;25.20
30856;BME280;17570;0.000;0.000;2023-02-25T09:31:38;95887.89;;;21.15;24.95
30856;BME280;17570;0.000;0.000;2023-02-25T09:34:08;95881.16;;;21.20;24.59
30856;BME280;17570;0.000;0.000;2023-02-25T09:36:39;95875.88;;;21.20;24.07
30856;BME280;17570;0.000;0.000;2023-02-25T09:39:07;95872.83;;;21.23;25.65
30856;BME280;17570;0.000;0.000;2023-02-25T09:41:41;95872.14;;;21.34;25.74
30856;BME280;17570;0.000;0.000;2023-02-25T09:44:06;95870.46;;;21.39;24.80
30856;BME280;17570;0.000;0.000;2023-02-25T09:46:34;95861.31;;;21.42;24.18
30856;BME280;17570;0.000;0.000;2023-02-25T09:49:10;95850.75;;;21.42;24.22
30856;BME280;17570;0.000;0.000;2023-02-25T09:51:33;95854.34;;;21.48;24.36
30856;BME280;17570;0.000;0.000;2023-02-25T09:54:14;95849.60;;;21.56;25.65
30856;BME280;17570;0.000;0.000;2023-02-25T09:56:38;95844.89;;;21.58;25.24
30856;BME280;17570;0.000;0.000;2023-02-25T09:59:10;95842.20;;;21.65;25.79
30856;BME280;17570;0.000;0.000;2023-02-25T10:01:37;95851.66;;;21.73;24.77
30856;BME280;17570;0.000;0.000;2023-02-25T10:04:27;95851.96;;;21.64;24.75
30856;BME280;17570;0.000;0.000;2023-02-25T10:06:39;95855.30;;;21.53;23.86
30856;BME280;17570;0.000;0.000;2023-02-25T10:11:42;95823.44;;;21.73;24.85
30856;BME280;17570;0.000;0.000;2023-02-25T10:16:54;95822.45;;;21.86;24.86
30856;BME280;17570;0.000;0.000;2023-02-25T10:24:43;95830.98;;;22.06;24.94
30856;BME280;17570;0.000;0.000;2023-02-25T10:29:51;95781.77;;;22.24;23.28
30856;BME280;17570;0.000;0.000;2023-02-25T10:32:19;95785.91;;;22.20;23.44
30856;BME280;17570;0.000;0.000;2023-02-25T10:37:20;95782.23;;;22.21;23.85
30856;BME280;17570;0.000;0.000;2023-02-25T10:39:43;95775.13;;;22.33;22.78
30856;BME280;17570;0.000;0.000;2023-02-25T10:42:12;95767.12;;;22.39;23.75
30856;BME280;17570;0.000;0.000;2023-02-25T10:44:42;95776.79;;;22.46;23.01
30856;BME280;17570;0.000;0.000;2023-02-25T10:47:12;95781.40;;;22.50;24.00
30856;BME280;17570;0.000;0.000;2023-02-25T10:49:55;95777.97;;;22.61;24.12
30856;BME280;17570;0.000;0.000;2023-02-25T10:52:15;95760.73;;;22.59;24.60
30856;BME280;17570;0.000;0.000;2023-02-25T10:54:46;95759.92;;;22.58;24.64
30856;BME280;17570;0.000;0.000;2023-02-25T10:57:16;95768.66;;;22.59;24.66
30856;BME280;17570;0.000;0.000;2023-02-25T10:59:44;95771.67;;;22.62;23.47
30856;BME280;17570;0.000;0.000;2023-02-25T11:02:22;95760.97;;;22.57;23.64
30856;BME280;17570;0.000;0.000;2023-02-25T11:04:50;95755.20;;;22.60;23.81
30856;BME280;17570;0.000;0.000;2023-02-25T11:07:26;95750.11;;;22.47;23.72
30856;BME280;17570;0.000;0.000;2023-02-25T11:09:56;95760.07;;;22.33;23.16
30856;BME280;17570;0.000;0.000;2023-02-25T11:12:18;95742.47;;;22.27;23.95
30856;BME280;17570;0.000;0.000;2023-02-25T11:14:46;95737.67;;;22.36;24.83
30856;BME280;17570;0.000;0.000;2023-02-25T11:17:16;95737.36;;;22.44;24.24
30856;BME280;17570;0.000;0.000;2023-02-25T11:19:52;95736.68;;;22.49;24.17
30856;BME280;17570;0.000;0.000;2023-02-25T11:22:22;95740.00;;;22.44;23.95
30856;BME280;17570;0.000;0.000;2023-02-25T11:24:59;95747.70;;;22.46;25.17
30856;BME280;17570;0.000;0.000;2023-02-25T11:30:02;95728.14;;;22.35;24.53
30856;BME280;17570;0.000;0.000;2023-02-25T11:32:28;95739.41;;;22.42;25.12
30856;BME280;17570;0.000;0.000;2023-02-25T11:35:07;95731.27;;;22.44;24.44
30856;BME280;17570;0.000;0.000;2023-02-25T11:37:43;95736.77;;;22.42;24.83
30856;BME280;17570;0.000;0.000;2023-02-25T11:40:22;95743.22;;;22.46;23.94
30856;BME280;17570;0.000;0.000;2023-02-25T11:42:58;95730.19;;;22.33;25.16
30856;BME280;17570;0.000;0.000;2023-02-25T11:45:18;95738.72;;;22.35;25.20
30856;BME280;17570;0.000;0.000;2023-02-25T11:47:46;95739.87;;;22.39;24.98
30856;BME280;17570;0.000;0.000;2023-02-25T11:53:06;95748.37;;;22.41;25.05
30856;BME280;17570;0.000;0.000;2023-02-25T11:55:46;95750.89;;;22.36;25.35
30856;BME280;17570;0.000;0.000;2023-02-25T12:00:58;95746.77;;;22.40;25.92
30856;BME280;17570;0.000;0.000;2023-02-25T12:03:31;95755.14;;;22.37;25.52
30856;BME280;17570;0.000;0.000;2023-02-25T12:21:48;95741.36;;;22.35;25.38
30856;BME280;17570;0.000;0.000;2023-02-25T12:29:20;95742.05;;;22.42;25.60
30856;BME280;17570;0.000;0.000;2023-02-25T12:36:55;95726.66;;;22.39;26.26
30856;BME280;17570;0.000;0.000;2023-02-25T12:39:32;95728.27;;;22.40;26.32
30856;BME280;17570;0.000;0.000;2023-02-25T12:42:16;95730.91;;;22.40;26.92
30856;BME280;17570;0.000;0.000;2023-02-25T12:47:22;95713.08;;;22.35;26.93
30856;BME280;17570;0.000;0.000;2023-02-25T12:55:21;95711.48;;;22.46;25.48
30856;BME280;17570;0.000;0.000;2023-02-25T13:10:56;95690.92;;;22.48;25.70
30856;BME280;17570;0.000;0.000;2023-02-25T13:13:44;95696.66;;;22.57;26.06
30856;BME280;17570;0.000;0.000;2023-02-25T13:16:24;95695.17;;;22.61;26.41
30856;BME280;17570;0.000;0.000;2023-02-25T13:26:47;95687.69;;;22.46;24.40
30856;BME280;17570;0.000;0.000;2023-02-25T13:29:23;95690.92;;;22.48;24.85
30856;BME280;17570;0.000;0.000;2023-02-25T13:34:29;95686.20;;;22.50;25.62
30856;BME280;17570;0.000;0.000;2023-02-25T13:50:30;95671.90;;;22.28;24.32
30856;BME280;17570;0.000;0.000;2023-02-25T13:53:08;95674.66;;;22.33;25.00
30856;BME280;17570;0.000;0.000;2023-02-25T14:05:45;95658.56;;;22.23;25.50
30856;BME280;17570;0.000;0.000;2023-02-25T14:08:24;95651.80;;;22.27;26.07
30856;BME280;17570;0.000;0.000;2023-02-25T14:11:12;95658.69;;;22.28;25.08
30856;BME280;17570;0.000;0.000;2023-02-25T14:16:13;95646.27;;;22.28;27.01
30856;BME280;17570;0.000;0.000;2023-02-25T14:18:46;95642.61;;;22.41;26.08
30856;BME280;17570;0.000;0.000;2023-02-25T14:24:12;95645.38;;;22.46;26.83
30856;BME280;17570;0.000;0.000;2023-02-25T14:39:40;95612.49;;;22.30;25.14
30856;BME280;17570;0.000;0.000;2023-02-25T14:44:57;95624.67;;;22.31;25.91
30856;BME280;17570;0.000;0.000;2023-02-25T14:47:41;95637.41;;;22.23;24.08
30856;BME280;17570;0.000;0.000;2023-02-25T14:50:53;95626.75;;;22.29;24.72
30856;BME280;17570;0.000;0.000;2023-02-25T15:01:00;95665.45;;;22.24;24.65
30856;BME280;17570;0.000;0.000;2023-02-25T15:03:35;95678.22;;;22.15;24.68
30856;BME280;17570;0.000;0.000;2023-02-25T15:08:41;95682.83;;;22.31;26.00
30856;BME280;17570;0.000;0.000;2023-02-25T15:19:02;95691.32;;;22.22;25.95
30856;BME280;17570;0.000;0.000;2023-02-25T15:23:57;95695.70;;;22.28;26.35
30856;BME280;17570;0.000;0.000;2023-02-25T15:26:41;95699.38;;;22.27;25.73
30856;BME280;17570;0.000;0.000;2023-02-25T15:34:57;95699.12;;;22.17;26.28
30856;BME280;17570;0.000;0.000;2023-02-25T15:39:53;95702.57;;;22.17;26.83
30856;BME280;17570;0.000;0.000;2023-02-25T15:55:50;95725.69;;;22.22;27.10
30856;BME280;17570;0.000;0.000;2023-02-25T16:00:54;95730.73;;;22.23;26.40
30856;BME280;17570;0.000;0.000;2023-02-25T16:11:24;95738.33;;;22.20;26.52
30856;BME280;17570;0.000;0.000;2023-02-25T16:16:08;95738.91;;;22.22;26.32
30856;BME280;17570;0.000;0.000;2023-02-25T16:18:37;95740.87;;;22.26;26.56
30856;BME280;17570;0.000;0.000;2023-02-25T16:21:12;95739.47;;;22.24;26.48
30856;BME280;17570;0.000;0.000;2023-02-25T16:23:37;95747.87;;;22.21;26.59
30856;BME280;17570;0.000;0.000;2023-02-25T16:26:16;95741.55;;;22.22;26.64
30856;BME280;17570;0.000;0.000;2023-02-25T16:31:23;95744.73;;;22.12;26.76
30856;BME280;17570;0.000;0.000;2023-02-25T16:34:00;95739.72;;;22.04;26.88
30856;BME280;17570;0.000;0.000;2023-02-25T16:36:32;95743.16;;;22.04;27.25
30856;BME280;17570;0.000;0.000;2023-02-25T16:41:26;95749.92;;;22.00;26.99
30856;BME280;17570;0.000;0.000;2023-02-25T16:43:54;95752.00;;;21.98;26.61
30856;BME280;17570;0.000;0.000;2023-02-25T16:46:27;95744.64;;;22.00;26.73
30856;BME280;17570;0.000;0.000;2023-02-25T16:48:56;95747.15;;;21.95;27.23
30856;BME280;17570;0.000;0.000;2023-02-25T16:51:25;95752.06;;;21.91;26.50
30856;BME280;17570;0.000;0.000;2023-02-25T16:53:54;95753.56;;;21.87;27.00
30856;BME280;17570;0.000;0.000;2023-02-25T16:56:24;95755.03;;;21.83;27.17
30856;BME280;17570;0.000;0.000;2023-02-25T16:58:58;95758.71;;;21.82;27.27
30856;BME280;17570;0.000;0.000;2023-02-25T17:01:27;95764.00;;;21.82;26.80
30856;BME280;17570;0.000;0.000;2023-02-25T17:06:36;95764.20;;;21.81;27.75
30856;BME280;17570;0.000;0.000;2023-02-25T17:09:04;95770.00;;;21.71;27.56
30856;BME280;17570;0.000;0.000;2023-02-25T17:11:33;95784.02;;;21.72;27.74
30856;BME280;17570;0.000;0.000;2023-02-25T17:14:02;95780.34;;;21.73;27.86
30856;BME280;17570;0.000;0.000;2023-02-25T17:16:34;95780.14;;;21.74;27.69
30856;BME280;17570;0.000;0.000;2023-02-25T17:19:00;95780.34;;;21.73;27.42
30856;BME280;17570;0.000;0.000;2023-02-25T17:21:35;95782.41;;;21.71;27.26
30856;BME280;17570;0.000;0.000;2023-02-25T17:24:06;95789.01;;;21.61;27.59
30856;BME280;17570;0.000;0.000;2023-02-25T17:26:38;95782.55;;;21.57;27.49
30856;BME280;17570;0.000;0.000;2023-02-25T17:29:08;95778.30;;;21.56;27.99
30856;BME280;17570;0.000;0.000;2023-02-25T17:31:40;95784.02;;;21.53;27.35
30856;BME280;17570;0.000;0.000;2023-02-25T17:34:09;95779.77;;;21.52;28.32
30856;BME280;17570;0.000;0.000;2023-02-25T17:36:38;95775.74;;;21.50;26.73
30856;BME280;17570;0.000;0.000;2023-02-25T17:39:15;95763.55;;;21.49;26.72
30856;BME280;17570;0.000;0.000;2023-02-25T17:41:44;95761.52;;;21.51;26.45
30856;BME280;17570;0.000;0.000;2023-02-25T17:46:57;95759.59;;;21.58;26.69
30856;BME280;17570;0.000;0.000;2023-02-25T17:49:31;95761.94;;;21.48;26.54
30856;BME280;17570;0.000;0.000;2023-02-25T17:52:03;95754.77;;;21.55;27.81
30856;BME280;17570;0.000;0.000;2023-02-25T17:54:35;95755.11;;;21.58;26.85
30856;BME280;17570;0.000;0.000;2023-02-25T17:57:14;95754.30;;;21.58;26.76
30856;BME280;17570;0.000;0.000;2023-02-25T17:59:39;95762.60;;;21.61;27.46
30856;BME280;17570;0.000;0.000;2023-02-25T18:02:27;95758.41;;;21.54;28.14
30856;BME280;17570;0.000;0.000;2023-02-25T18:05:07;95756.14;;;21.57;27.02
30856;BME280;17570;0.000;0.000;2023-02-25T18:07:27;95758.06;;;21.50;26.94
30856;BME280;17570;0.000;0.000;2023-02-25T18:09:58;95689.82;;;21.10;28.21
30856;BME280;17570;0.000;0.000;2023-02-25T18:12:29;95757.41;;;21.55;27.45
30856;BME280;17570;0.000;0.000;2023-02-25T18:14:56;95757.55;;;21.60;26.99
30856;BME280;17570;0.000;0.000;2023-02-25T18:17:28;95751.80;;;21.63;27.02
30856;BME280;17570;0.000;0.000;2023-02-25T18:20:00;95749.97;;;21.63;27.02
30856;BME280;17570;0.000;0.000;2023-02-25T18:22:31;95749.97;;;21.63;27.14
30856;BME280;17570;0.000;0.000;2023-02-25T18:25:03;95765.09;;;21.56;26.40
30856;BME280;17570;0.000;0.000;2023-02-25T18:27:32;95764.87;;;21.58;27.00
30856;BME280;17570;0.000;0.000;2023-02-25T18:30:23;95755.11;;;21.58;27.47
30856;BME280;17570;0.000;0.000;2023-02-25T18:32:31;95760.48;;;21.52;26.69
30856;BME280;17570;0.000;0.000;2023-02-25T18:34:58;95770.00;;;21.53;27.16
30856;BME280;17570;0.000;0.000;2023-02-25T18:37:26;95761.42;;;21.57;27.10
30856;BME280;17570;0.000;0.000;2023-02-25T18:39:55;95751.47;;;21.59;28.21
30856;BME280;17570;0.000;0.000;2023-02-25T18:42:22;95752.47;;;21.58;27.52
30856;BME280;17570;0.000;0.000;2023-02-25T18:44:51;95757.75;;;21.58;27.52
30856;BME280;17570;0.000;0.000;2023-02-25T18:47:18;95757.98;;;21.57;27.76
30856;BME280;17570;0.000;0.000;2023-02-25T18:49:46;95760.48;;;21.52;27.63
30856;BME280;17570;0.000;0.000;2023-02-25T18:52:22;95762.89;;;21.53;27.79
30856;BME280;17570;0.000;0.000;2023-02-25T18:54:47;95760.70;;;21.50;27.90
30856;BME280;17570;0.000;0.000;2023-02-25T18:57:21;95762.97;;;21.47;27.83
30856;BME280;17570;0.000;0.000;2023-02-25T18:59:47;95766.79;;;21.51;28.17
30856;BME280;17570;0.000;0.000;2023-02-25T19:02:25;95752.78;;;21.50;28.46
30856;BME280;17570;0.000;0.000;2023-02-25T19:04:44;95757.03;;;21.51;28.56
30856;BME280;17570;0.000;0.000;2023-02-25T19:07:12;95756.00;;;21.52;28.22
30856;BME280;17570;0.000;0.000;2023-02-25T19:09:39;95751.52;;;21.53;28.51
30856;BME280;17570;0.000;0.000;2023-02-25T19:12:09;95759.24;;;21.54;27.57
30856;BME280;17570;0.000;0.000;2023-02-25T19:14:36;95762.31;;;21.51;27.67
30856;BME280;17570;0.000;0.000;2023-02-25T19:17:03;95754.16;;;21.53;28.08
30856;BME280;17570;0.000;0.000;2023-02-25T19:19:31;95764.15;;;21.51;28.64
30856;BME280;17570;0.000;0.000;2023-02-25T19:21:59;95766.84;;;21.44;28.13
30856;BME280;17570;0.000;0.000;2023-02-25T19:24:26;95767.88;;;21.43;28.22
30856;BME280;17570;0.000;0.000;2023-02-25T19:26:57;95765.23;;;21.43;27.62
30856;BME280;17570;0.000;0.000;2023-02-25T19:29:27;95760.98;;;21.42;28.33
30856;BME280;17570;0.000;0.000;2023-02-25T19:31:54;95755.71;;;21.42;27.95
30856;BME280;17570;0.000;0.000;2023-02-25T19:34:24;95764.81;;;21.46;27.90
30856;BME280;17570;0.000;0.000;2023-02-25T19:36:53;95772.58;;;21.41;27.84
30856;BME280;17570;0.000;0.000;2023-02-25T19:39:20;95762.59;;;21.43;30.23
30856;BME280;17570;0.000;0.000;2023-02-25T19:41:48;95763.78;;;21.47;28.61
30856;BME280;17570;0.000;0.000;2023-02-25T19:44:15;95759.67;;;21.51;28.36
30856;BME280;17570;0.000;0.000;2023-02-25T19:46:44;95763.92;;;21.52;28.25
30856;BME280;17570;0.000;0.000;2023-02-25T19:49:12;95754.97;;;21.53;28.71
30856;BME280;17570;0.000;0.000;2023-02-25T19:51:39;95758.78;;;21.57;28.65
30856;BME280;17570;0.000;0.000;2023-02-25T19:54:06;95763.12;;;21.52;28.48
30856;BME280;17570;0.000;0.000;2023-02-25T19:56:34;95754.97;;;21.53;28.67
30856;BME280;17570;0.000;0.000;2023-02-25T19:59:01;95754.30;;;21.58;28.74
30856;BME280;17570;0.000;0.000;2023-02-25T20:01:29;95772.79;;;21.58;28.58
30856;BME280;17570;0.000;0.000;2023-02-25T20:03:57;95767.73;;;21.56;28.57
30856;BME280;17570;0.000;0.000;2023-02-25T20:06:25;95770.52;;;21.61;28.64
30856;BME280;17570;0.000;0.000;2023-02-25T20:08:53;95764.06;;;21.57;28.87
30856;BME280;17570;0.000;0.000;2023-02-25T20:11:21;95765.61;;;21.47;29.58
30856;BME280;17570;0.000;0.000;2023-02-25T20:13:48;95767.45;;;21.46;29.47
30856;BME280;17570;0.000;0.000;2023-02-25T20:16:16;95759.30;;;21.48;29.33
30856;BME280;17570;0.000;0.000;2023-02-25T20:18:46;95760.10;;;21.48;29.30
30856;BME280;17570;0.000;0.000;2023-02-25T20:21:12;95761.37;;;21.46;29.34
30856;BME280;17570;0.000;0.000;2023-02-25T20:23:40;95756.37;;;21.37;29.55
30856;BME280;17570;0.000;0.000;2023-02-25T20:26:09;95761.27;;;21.34;29.56
30856;BME280;17570;0.000;0.000;2023-02-25T20:28:38;95756.47;;;21.24;30.31
30856;BME280;17570;0.000;0.000;2023-02-25T20:31:07;95754.11;;;21.16;30.97
30856;BME280;17570;0.000;0.000;2023-02-25T20:33:35;95747.83;;;21.17;29.79
30856;BME280;17570;0.000;0.000;2023-02-25T20:36:12;95743.20;;;21.12;29.72
30856;BME280;17570;0.000;0.000;2023-02-25T20:38:33;95751.55;;;21.09;29.72
30856;BME280;17570;0.000;0.000;2023-02-25T20:41:01;95738.92;;;21.11;30.66
30856;BME280;17570;0.000;0.000;2023-02-25T20:43:29;95735.86;;;21.14;30.75
30856;BME280;17570;0.000;0.000;2023-02-25T20:45:56;95732.64;;;21.12;30.46
30856;BME280;17570;0.000;0.000;2023-02-25T20:48:26;95732.80;;;21.18;29.19
30856;BME280;17570;0.000;0.000;2023-02-25T20:50:54;95747.64;;;21.12;28.14
30856;BME280;17570;0.000;0.000;2023-02-25T20:53:21;95746.34;;;21.21;30.41
30856;BME280;17570;0.000;0.000;2023-02-25T20:55:49;95735.13;;;21.26;29.62
30856;BME280;17570;0.000;0.000;2023-02-25T20:58:17;95749.81;;;21.22;28.81
30856;BME280;17570;0.000;0.000;2023-02-25T21:00:45;95735.78;;;21.21;28.93
30856;BME280;17570;0.000;0.000;2023-02-25T21:03:12;95736.77;;;21.27;29.03
30856;BME280;17570;0.000;0.000;2023-02-25T21:05:41;95719.52;;;21.24;29.20
30856;BME280;17570;0.000;0.000;2023-02-25T21:08:08;95728.38;;;21.30;28.70
30856;BME280;17570;0.000;0.000;2023-02-25T21:10:36;95716.63;;;21.32;28.74
30856;BME280;17570;0.000;0.000;2023-02-25T21:13:03;95714.36;;;21.36;29.47
30856;BME280;17570;0.000;0.000;2023-02-25T21:15:31;95720.21;;;21.38;28.97
30856;BME280;17570;0.000;0.000;2023-02-25T21:18:00;95709.23;;;21.41;29.26
30856;BME280;17570;0.000;0.000;2023-02-25T21:20:27;95716.54;;;21.39;29.38
30856;BME280;17570;0.000;0.000;2023-02-25T21:22:55;95707.76;;;21.45;29.17
30856;BME280;17570;0.000;0.000;2023-02-25T21:25:22;95719.47;;;21.49;29.25
30856;BME280;17570;0.000;0.000;2023-02-25T21:27:50;95700.55;;;21.52;28.95
30856;BME280;17570;0.000;0.000;2023-02-25T21:30:17;95698.34;;;21.49;29.76
30856;BME280;17570;0.000;0.000;2023-02-25T21:32:47;95696.45;;;21.38;29.86
30856;BME280;17570;0.000;0.000;2023-02-25T21:35:14;95691.61;;;21.35;28.82
30856;BME280;17570;0.000;0.000;2023-02-25T21:37:42;95696.31;;;21.33;30.06
30856;BME280;17570;0.000;0.000;2023-02-25T21:40:10;95687.73;;;21.37;29.23
30856;BME280;17570;0.000;0.000;2023-02-25T21:42:41;95711.77;;;21.48;28.84
30856;BME280;17570;0.000;0.000;2023-02-25T21:45:08;95692.34;;;21.42;29.00
30856;BME280;17570;0.000;0.000;2023-02-25T21:47:36;95668.22;;;21.38;28.80
30856;BME280;17570;0.000;0.000;2023-02-25T21:50:03;95691.75;;;21.40;29.08
30856;BME280;17570;0.000;0.000;2023-02-25T21:52:32;95670.20;;;21.43;28.88